Time;durP1;ratioP1;P1;durP2;ratioP2;P2;SDS_P1;SDS_P2;PMS_P1;PMS_P2;Temp;Humidity;BMP_temperature;BMP_pressure;BME280_temperature;BME280_humidity;BME280_pressure;Samples;Min_cycle;Max_cycle;Signal;HPM_P1;HPM_P2
2021/01/15 00:03:01;;;;;;;72.30;36.42;;;;;;;0.36;74.40;100430.46;2178811;81;27669;-69
2021/01/15 00:06:08;;;;;;;76.37;37.08;;;;;;;0.38;74.42;100438.78;2207736;80;27865;-70
2021/01/15 00:09:11;;;;;;;80.15;37.15;;;;;;;0.39;74.46;100433.08;2171107;80;31170;-70
2021/01/15 00:12:13;;;;;;;74.37;35.38;;;;;;;0.42;74.45;100435.67;2186222;80;33153;-70
2021/01/15 00:15:15;;;;;;;80.92;40.55;;;;;;;0.43;74.55;100435.69;2200977;80;29165;-68
2021/01/15 00:18:17;;;;;;;87.10;42.55;;;;;;;0.47;74.49;100437.00;2168830;82;27722;-71
2021/01/15 00:21:23;;;;;;;82.97;43.42;;;;;;;0.46;74.49;100437.42;2199713;80;29860;-70
2021/01/15 00:24:25;;;;;;;87.60;42.80;;;;;;;0.47;74.54;100435.22;2210059;80;31137;-71
2021/01/15 00:27:27;;;;;;;79.62;41.35;;;;;;;0.48;74.48;100442.24;2194936;80;34075;-68
2021/01/15 00:30:29;;;;;;;76.75;41.25;;;;;;;0.46;74.42;100438.73;2185805;80;29190;-69
2021/01/15 00:33:31;;;;;;;80.67;42.00;;;;;;;0.46;74.47;100437.42;2217414;79;27649;-69
2021/01/15 00:36:34;;;;;;;83.33;41.98;;;;;;;0.47;74.52;100434.36;2198129;80;28789;-74
2021/01/15 00:39:36;;;;;;;74.27;40.10;;;;;;;0.47;74.54;100439.17;2206946;80;32210;-73
2021/01/15 00:42:38;;;;;;;77.60;38.95;;;;;;;0.45;74.47;100438.30;2206701;80;32916;-67
2021/01/15 00:45:40;;;;;;;80.65;41.33;;;;;;;0.43;74.55;100432.16;2176557;81;29285;-70
2021/01/15 00:48:42;;;;;;;80.28;40.70;;;;;;;0.43;74.62;100423.83;2176674;81;27740;-70
2021/01/15 00:51:51;;;;;;;81.15;43.08;;;;;;;0.45;74.76;100416.80;2204226;80;28811;-69
2021/01/15 00:54:53;;;;;;;82.17;40.38;;;;;;;0.46;74.68;100409.75;2208904;78;31192;-68
2021/01/15 00:57:56;;;;;;;76.90;41.35;;;;;;;0.43;74.69;100411.08;2178464;80;34130;-67
2021/01/15 01:00:58;;;;;;;89.28;44.08;;;;;;;0.42;74.78;100414.59;2185067;78;29226;-67
2021/01/15 01:04:00;;;;;;;88.62;46.35;;;;;;;0.42;74.78;100420.75;2185027;80;27834;-67
2021/01/15 01:07:06;;;;;;;89.10;42.53;;;;;;;0.41;74.80;100422.09;2188590;80;28795;-68
2021/01/15 01:10:24;;;;;;;94.30;47.75;;;;;;;0.40;74.82;100429.57;2156826;80;27793;-67
2021/01/15 01:13:39;;;;;;;90.70;46.65;;;;;;;0.41;74.91;100426.05;2179271;80;33170;-67
2021/01/15 01:16:47;;;;;;;91.85;46.33;;;;;;;0.42;74.99;100431.72;2212246;79;29060;-66
2021/01/15 01:19:50;;;;;;;91.42;46.23;;;;;;;0.42;74.93;100425.13;2189925;80;27673;-67
2021/01/15 01:22:53;;;;;;;91.42;46.65;;;;;;;0.42;74.89;100433.04;2168270;82;28828;-67
2021/01/15 01:25:55;;;;;;;87.33;47.05;;;;;;;0.43;74.97;100429.09;2168639;82;31137;-67
2021/01/15 01:28:58;;;;;;;91.32;46.00;;;;;;;0.45;74.97;100434.34;2168929;80;33619;-67
2021/01/15 01:32:01;;;;;;;92.35;47.08;;;;;;;0.47;74.94;100431.27;2174799;80;29168;-67
2021/01/15 01:35:06;;;;;;;89.47;48.05;;;;;;;0.48;74.96;100427.75;2168731;80;27758;-67
2021/01/15 01:38:08;;;;;;;88.27;45.48;;;;;;;0.50;75.01;100431.25;2183156;80;29665;-67
2021/01/15 01:41:12;;;;;;;98.37;46.42;;;;;;;0.51;74.99;100431.69;2169202;80;31155;-66
2021/01/15 01:44:15;;;;;;;83.95;42.25;;;;;;;0.53;74.98;100431.66;2168638;82;34040;-66
2021/01/15 01:47:19;;;;;;;83.45;43.75;;;;;;;0.55;75.00;100427.27;2168632;80;29162;-67
2021/01/15 01:50:22;;;;;;;83.20;42.70;;;;;;;0.58;75.10;100428.11;2171455;81;27790;-68
2021/01/15 01:53:30;;;;;;;85.35;44.23;;;;;;;0.59;75.06;100426.36;2137862;83;29777;-67
2021/01/15 01:56:32;;;;;;;76.67;41.08;;;;;;;0.60;75.10;100433.39;2179635;81;31301;-66
2021/01/15 01:59:36;;;;;;;77.92;41.33;;;;;;;0.62;75.13;100433.37;2155611;81;33110;-67
2021/01/15 02:02:39;;;;;;;72.85;41.60;;;;;;;0.65;75.18;100432.03;2165512;81;29153;-67
2021/01/15 02:05:41;;;;;;;72.75;37.42;;;;;;;0.65;75.09;100433.35;2180236;81;27722;-67
2021/01/15 02:08:43;;;;;;;68.78;36.55;;;;;;;0.64;75.10;100430.28;2173572;81;28822;-66
2021/01/15 02:12:32;;;;;;;68.95;37.40;;;;;;;0.65;75.11;100432.92;2181784;81;32390;-66
2021/01/15 02:15:43;;;;;;;69.17;36.77;;;;;;;0.65;75.05;100432.92;2182790;81;33604;-66
2021/01/15 02:18:58;;;;;;;77.87;37.55;;;;;;;0.66;75.12;100434.68;2182434;81;29186;-66
2021/01/15 02:22:30;;;;;;;71.30;36.25;;;;;;;0.67;75.13;100441.67;2179467;80;27821;-66
2021/01/15 02:26:10;;;;;;;68.50;36.83;;;;;;;0.68;75.23;100435.97;2182736;81;28859;-68
2021/01/15 02:29:26;;;;;;;65.52;34.30;;;;;;;0.70;75.24;100444.75;2182059;80;31256;-67
2021/01/15 02:32:42;;;;;;;65.30;35.10;;;;;;;0.72;75.26;100444.30;2147482;81;33574;-66
2021/01/15 02:36:02;;;;;;;71.05;37.30;;;;;;;0.71;75.25;100442.09;2144921;82;30148;-67
2021/01/15 02:39:43;;;;;;;56.88;33.20;;;;;;;0.70;75.27;100448.25;2177482;81;27750;-67
2021/01/15 02:42:46;;;;;;;65.30;34.10;;;;;;;0.71;75.24;100440.78;2163658;81;28903;-68
2021/01/15 02:45:48;;;;;;;66.92;34.80;;;;;;;0.72;75.27;100445.16;2180205;81;31138;-66
2021/01/15 02:48:52;;;;;;;68.02;33.67;;;;;;;0.75;75.33;100449.53;2198740;80;33111;-67
2021/01/15 02:51:54;;;;;;;62.23;33.95;;;;;;;0.77;75.30;100451.72;2186132;80;30616;-67
2021/01/15 02:54:57;;;;;;;56.23;31.97;;;;;;;0.79;75.38;100453.91;2196031;80;27719;-68
2021/01/15 02:57:59;;;;;;;57.33;32.17;;;;;;;0.77;75.36;100458.31;2197630;80;29693;-66
2021/01/15 03:01:02;;;;;;;58.78;33.02;;;;;;;0.80;75.40;100460.07;2187521;80;32314;-67
2021/01/15 03:04:21;;;;;;;55.08;30.72;;;;;;;0.78;75.37;100461.84;2208902;80;34594;-67
2021/01/15 03:07:25;;;;;;;50.58;28.67;;;;;;;0.77;75.42;100455.67;2189227;80;29169;-68
2021/01/15 03:10:27;;;;;;;50.65;28.47;;;;;;;0.79;75.51;100458.32;2176036;80;27662;-66
2021/01/15 03:13:30;;;;;;;51.42;29.10;;;;;;;0.81;75.49;100460.05;2216387;80;28798;-67
2021/01/15 03:16:33;;;;;;;55.25;31.00;;;;;;;0.83;75.40;100464.02;2216604;80;30953;-67
2021/01/15 03:19:37;;;;;;;55.70;29.52;;;;;;;0.84;75.55;100456.50;2178421;80;33083;-67
2021/01/15 03:22:44;;;;;;;55.50;28.75;;;;;;;0.86;75.50;100454.73;2169211;80;29199;-66
2021/01/15 03:25:45;;;;;;;46.80;27.62;;;;;;;0.87;75.45;100463.08;2203297;80;27673;-67
2021/01/15 03:28:47;;;;;;;53.73;30.43;;;;;;;0.85;75.44;100467.48;2188285;79;28820;-67
2021/01/15 03:31:50;;;;;;;46.90;27.67;;;;;;;0.84;75.47;100468.38;2208918;80;31236;-67
2021/01/15 03:34:52;;;;;;;44.93;24.85;;;;;;;0.80;75.43;100478.07;2203952;79;33140;-66
2021/01/15 03:38:01;;;;;;;38.00;23.47;;;;;;;0.78;75.45;100475.89;2190782;80;30186;-67
2021/01/15 03:41:03;;;;;;;41.83;24.07;;;;;;;0.79;75.48;100478.09;2195486;80;27726;-66
2021/01/15 03:44:06;;;;;;;41.00;24.87;;;;;;;0.81;75.57;100474.55;2195426;80;28814;-66
2021/01/15 03:47:08;;;;;;;47.78;26.62;;;;;;;0.82;75.54;100474.98;2181729;80;32246;-67
2021/01/15 03:50:12;;;;;;;41.25;23.20;;;;;;;0.82;75.44;100472.81;2190465;79;34033;-68
2021/01/15 03:53:15;;;;;;;42.88;24.82;;;;;;;0.80;75.37;100470.63;2178910;81;28173;-68
2021/01/15 03:56:18;;;;;;;44.05;25.02;;;;;;;0.73;75.17;100469.78;2203604;80;27648;-67
2021/01/15 03:59:20;;;;;;;45.92;25.92;;;;;;;0.64;75.14;100468.51;2169293;80;29790;-67
2021/01/15 04:02:22;;;;;;;48.80;27.27;;;;;;;0.55;75.13;100468.12;2169534;80;32121;-68
2021/01/15 04:05:25;;;;;;;44.38;27.37;;;;;;;0.47;75.25;100468.63;2170622;80;33175;-68
2021/01/15 04:08:27;;;;;;;50.15;26.48;;;;;;;0.46;75.51;100467.73;2204778;80;29377;-67
2021/01/15 04:11:29;;;;;;;44.95;25.27;;;;;;;0.44;75.43;100473.02;2222700;79;27567;-67
2021/01/15 04:14:31;;;;;;;42.73;24.82;;;;;;;0.45;75.54;100466.87;2219745;79;28822;-67
2021/01/15 04:17:35;;;;;;;44.67;26.15;;;;;;;0.45;75.39;100466.87;2211949;79;31123;-65
2021/01/15 04:20:37;;;;;;;44.65;25.15;;;;;;;0.45;75.45;100468.19;2180227;79;33251;-64
2021/01/15 04:23:39;;;;;;;49.27;28.15;;;;;;;0.41;75.30;100461.17;2215987;80;29608;-66
2021/01/15 04:26:41;;;;;;;50.73;28.40;;;;;;;0.36;75.37;100463.41;2215357;79;27703;-67
2021/01/15 04:29:43;;;;;;;48.30;27.85;;;;;;;0.35;75.54;100469.09;2224534;79;29228;-67
2021/01/15 04:32:48;;;;;;;45.35;26.85;;;;;;;0.31;75.48;100470.02;2214141;80;31142;-67
2021/01/15 04:35:50;;;;;;;52.20;27.40;;;;;;;0.28;75.51;100477.48;2201408;80;33960;-67
2021/01/15 04:38:52;;;;;;;44.20;25.75;;;;;;;0.22;75.54;100471.36;2191785;80;30196;-67
2021/01/15 04:41:55;;;;;;;44.65;24.25;;;;;;;0.20;75.60;100475.75;2180492;79;27704;-68
2021/01/15 04:44:57;;;;;;;43.90;25.80;;;;;;;0.18;75.58;100474.87;2178143;81;28894;-67
2021/01/15 04:47:59;;;;;;;51.37;27.82;;;;;;;0.21;75.79;100480.14;2179283;80;32123;-67
2021/01/15 04:51:05;;;;;;;45.15;26.17;;;;;;;0.24;75.74;100478.39;2189379;80;33133;-68
2021/01/15 04:54:11;;;;;;;49.65;27.17;;;;;;;0.26;75.55;100480.55;2179463;80;29165;-67
2021/01/15 04:57:14;;;;;;;49.35;27.58;;;;;;;0.23;75.42;100482.33;2191266;80;27746;-67
2021/01/15 05:00:23;;;;;;;52.90;29.60;;;;;;;0.20;75.46;100480.60;2177926;80;28787;-67
2021/01/15 05:03:26;;;;;;;61.28;32.08;;;;;;;0.16;75.34;100486.75;2179264;79;31167;-67
2021/01/15 05:06:30;;;;;;;67.78;35.23;;;;;;;0.12;75.43;100489.85;2208564;78;32072;-68
2021/01/15 05:09:45;;;;;;;64.80;35.38;;;;;;;0.10;75.43;100490.30;2146883;79;29626;-68
2021/01/15 05:12:49;;;;;;;57.05;31.65;;;;;;;0.11;75.61;100494.69;2178830;79;27691;-67
2021/01/15 05:15:51;;;;;;;49.73;29.32;;;;;;;0.14;75.52;100497.73;2207880;79;28075;-68
2021/01/15 05:18:54;;;;;;;50.45;28.45;;;;;;;0.17;75.66;100490.28;2191460;80;31252;-67
2021/01/15 05:21:57;;;;;;;53.68;29.10;;;;;;;0.20;75.63;100493.77;2202018;80;34446;-67
2021/01/15 05:24:59;;;;;;;51.80;29.40;;;;;;;0.20;75.48;100499.04;2195502;80;29170;-67
2021/01/15 05:28:02;;;;;;;69.45;35.33;;;;;;;0.20;75.43;100508.69;2171471;80;27714;-68
2021/01/15 05:31:04;;;;;;;49.38;28.90;;;;;;;0.19;75.44;100513.52;2187327;80;29663;-68
2021/01/15 05:34:08;;;;;;;50.98;26.77;;;;;;;0.21;75.46;100512.66;2169000;80;32116;-68
2021/01/15 05:37:10;;;;;;;55.25;31.30;;;;;;;0.22;75.30;100513.09;2180702;80;33116;-68
2021/01/15 05:40:14;;;;;;;52.20;31.05;;;;;;;0.23;75.35;100521.86;2168643;82;29165;-69
2021/01/15 05:43:30;;;;;;;52.38;29.92;;;;;;;0.25;75.34;100522.73;2183937;80;28165;-68
2021/01/15 05:46:33;;;;;;;53.92;28.75;;;;;;;0.26;75.34;100525.34;2201078;80;28834;-67
2021/01/15 05:49:36;;;;;;;48.48;28.57;;;;;;;0.27;75.37;100524.92;2177024;80;32116;-67
2021/01/15 05:52:58;;;;;;;49.90;30.15;;;;;;;0.25;75.22;100520.95;2167595;80;33122;-67
2021/01/15 05:56:01;;;;;;;54.03;28.70;;;;;;;0.26;75.32;100515.27;2206395;80;28356;-67
2021/01/15 05:59:10;;;;;;;47.98;27.73;;;;;;;0.29;75.29;100516.58;2206455;79;27713;-68
2021/01/15 06:02:13;;;;;;;55.20;29.12;;;;;;;0.30;75.32;100510.42;2200687;80;29772;-68
2021/01/15 06:05:17;;;;;;;53.63;29.30;;;;;;;0.31;75.28;100517.45;2215697;80;31148;-68
2021/01/15 06:08:19;;;;;;;48.92;27.25;;;;;;;0.29;75.27;100518.75;2203471;79;34240;-68
2021/01/15 06:11:23;;;;;;;50.88;29.55;;;;;;;0.31;75.27;100518.77;2190970;80;29167;-67
2021/01/15 06:14:27;;;;;;;55.70;30.08;;;;;;;0.30;75.32;100515.23;2198528;80;27741;-68
2021/01/15 06:17:29;;;;;;;51.70;29.85;;;;;;;0.30;75.27;100525.78;2185763;80;29808;-68
2021/01/15 06:20:33;;;;;;;85.60;47.05;;;;;;;0.29;75.13;100543.78;2192601;80;31139;-67
2021/01/15 06:23:41;;;;;;;77.12;39.92;;;;;;;0.24;75.08;100539.00;2178690;80;33228;-67
2021/01/15 06:26:43;;;;;;;73.85;40.45;;;;;;;0.24;75.21;100544.69;2177722;80;29287;-67
2021/01/15 06:29:47;;;;;;;67.90;37.83;;;;;;;0.24;75.20;100553.48;2209518;80;27744;-68
2021/01/15 06:32:52;;;;;;;56.75;30.32;;;;;;;0.22;75.15;100553.92;2182656;80;29757;-67
2021/01/15 06:35:54;;;;;;;72.25;38.10;;;;;;;0.21;75.09;100558.76;2178401;81;31135;-67
2021/01/15 06:38:56;;;;;;;68.55;37.30;;;;;;;0.18;75.11;100557.45;2200436;80;33099;-68
2021/01/15 06:42:02;;;;;;;58.23;34.05;;;;;;;0.19;75.15;100563.15;2216839;80;29141;-68
2021/01/15 06:45:13;;;;;;;62.10;35.13;;;;;;;0.20;75.22;100568.86;2216923;80;27710;-68
2021/01/15 06:48:15;;;;;;;57.40;34.73;;;;;;;0.21;75.25;100571.93;2199506;80;28818;-67
2021/01/15 06:51:18;;;;;;;60.10;35.28;;;;;;;0.22;75.22;100571.47;2177697;81;31171;-67
2021/01/15 06:54:26;;;;;;;71.33;40.65;;;;;;;0.23;75.12;100570.59;2178975;79;34150;-67
2021/01/15 06:57:30;;;;;;;75.85;42.33;;;;;;;0.23;75.09;100575.44;2197275;80;29235;-68
2021/01/15 07:00:34;;;;;;;77.45;41.70;;;;;;;0.26;75.07;100572.77;2217075;80;27673;-67
2021/01/15 07:04:04;;;;;;;78.10;44.08;;;;;;;0.28;75.06;100576.28;2137549;80;28935;-67
2021/01/15 07:07:34;;;;;;;92.22;46.92;;;;;;;0.32;75.11;100579.81;2210621;80;31207;-68
2021/01/15 07:10:36;;;;;;;85.25;43.17;;;;;;;0.34;75.03;100577.16;1900555;91;33088;-68
2021/01/15 07:13:39;;;;;;;78.15;38.08;;;;;;;0.38;75.14;100568.38;1928005;92;29185;-67
2021/01/15 07:16:41;;;;;;;66.30;35.35;;;;;;;0.42;75.13;100568.77;1926886;92;27794;-67
2021/01/15 07:19:50;;;;;;;72.95;37.55;;;;;;;0.45;75.05;100567.45;1936096;90;28914;-68
2021/01/15 07:22:57;;;;;;;65.92;35.75;;;;;;;0.51;75.16;100570.07;1965318;90;32146;-67
2021/01/15 07:26:13;;;;;;;70.57;39.33;;;;;;;0.62;75.15;100571.77;2248252;78;27688;-68
2021/01/15 07:29:16;;;;;;;72.87;39.48;;;;;;;0.62;74.95;100581.00;2221538;79;27631;-68
2021/01/15 07:32:26;;;;;;;87.30;43.85;;;;;;;0.63;74.84;100586.71;2179098;80;29785;-68
2021/01/15 07:35:29;;;;;;;130.52;58.60;;;;;;;0.64;74.82;100588.05;2205882;80;31259;-68
2021/01/15 07:38:31;;;;;;;140.73;62.25;;;;;;;0.65;74.62;100595.07;2218112;80;33115;-68
2021/01/15 07:41:47;;;;;;;119.50;57.25;;;;;;;0.64;74.37;100592.00;2181723;80;28971;-68
2021/01/15 07:44:49;;;;;;;97.22;44.63;;;;;;;0.62;74.41;100594.19;2194336;80;27700;-67
2021/01/15 07:47:53;;;;;;;84.52;43.42;;;;;;;0.63;74.62;100593.30;2178272;80;28899;-69
2021/01/15 07:50:56;;;;;;;91.60;43.63;;;;;;;0.66;74.48;100590.66;2179266;80;31194;-68
2021/01/15 07:53:58;;;;;;;83.05;43.00;;;;;;;0.68;74.48;100591.53;2211355;80;32238;-68
2021/01/15 07:57:14;;;;;;;77.17;42.35;;;;;;;0.70;74.35;100593.73;2218231;80;28864;-68
2021/01/15 08:00:24;;;;;;;;;;;;;;;0.69;74.29;100602.06;2217425;80;27630;-68
2021/01/15 08:03:27;;;;;;;76.30;38.67;;;;;;;0.72;74.46;100595.92;2208487;80;28984;-67
2021/01/15 08:06:29;;;;;;;68.72;35.10;;;;;;;0.72;74.61;100591.97;2217233;80;31223;-67
2021/01/15 08:09:40;;;;;;;61.95;34.30;;;;;;;0.75;74.09;100601.16;2181019;80;33122;-68
2021/01/15 08:12:42;;;;;;;63.35;33.05;;;;;;;0.74;73.94;100595.47;2194479;80;28862;-68
2021/01/15 08:15:44;;;;;;;67.67;34.98;;;;;;;0.71;73.75;100598.12;2200649;80;27681;-68
2021/01/15 08:18:47;;;;;;;58.33;34.48;;;;;;;0.70;73.66;100597.22;2186891;80;28831;-68
2021/01/15 08:21:52;;;;;;;84.55;42.70;;;;;;;0.70;73.67;100598.55;2191398;80;31153;-68
2021/01/15 08:24:55;;;;;;;83.97;42.83;;;;;;;0.75;74.10;100598.09;2144944;81;32082;-67
2021/01/15 08:27:58;;;;;;;85.75;42.48;;;;;;;0.83;74.23;100595.88;2155845;81;29759;-67
2021/01/15 08:31:06;;;;;;;92.20;45.70;;;;;;;0.89;74.01;100595.41;2142841;81;27728;-68
2021/01/15 08:34:14;;;;;;;62.05;33.55;;;;;;;0.93;73.75;100596.67;2145938;81;28683;-68
2021/01/15 08:37:17;;;;;;;58.98;34.13;;;;;;;0.92;73.55;100601.09;2172972;81;31221;-68
2021/01/15 08:43:46;;;;;;;62.90;33.37;;;;;;;0.87;73.55;100593.63;2241956;78;27576;-68
2021/01/15 08:46:48;;;;;;;60.85;33.13;;;;;;;0.84;73.61;100597.17;2179500;81;27720;-69
2021/01/15 08:49:55;;;;;;;66.53;38.70;;;;;;;0.84;73.61;100601.12;2183439;80;28760;-68
2021/01/15 08:52:58;;;;;;;63.80;32.95;;;;;;;0.86;73.52;100599.80;2211916;80;32139;-69
2021/01/15 08:56:00;;;;;;;53.58;30.68;;;;;;;0.87;73.44;100602.44;2204854;80;34378;-66
2021/01/15 08:59:06;;;;;;;54.38;32.03;;;;;;;0.88;73.65;100601.98;2182854;80;29730;-66
2021/01/15 09:02:10;;;;;;;59.95;33.02;;;;;;;0.94;73.87;100610.30;2195908;80;27671;-66
2021/01/15 09:05:20;;;;;;;63.15;33.73;;;;;;;0.98;73.79;100609.41;2190667;80;28774;-67
2021/01/15 09:08:23;;;;;;;55.45;31.30;;;;;;;1.01;73.85;100608.95;2178710;81;32118;-67
2021/01/15 09:11:27;;;;;;;65.85;33.50;;;;;;;1.05;73.45;100614.64;2179763;80;33104;-66
2021/01/15 09:14:33;;;;;;;73.75;42.95;;;;;;;1.04;73.62;100616.84;2179510;81;34865;-67
2021/01/15 09:17:34;;;;;;;64.03;37.53;;;;;;;1.06;73.46;100621.68;2179350;81;27672;-67
2021/01/15 09:20:36;;;;;;;58.52;34.88;;;;;;;1.02;73.30;100622.57;2179543;81;28642;-67
2021/01/15 09:23:38;;;;;;;60.43;33.38;;;;;;;0.98;73.40;100610.73;2181700;80;31224;-67
2021/01/15 09:26:41;;;;;;;67.67;37.38;;;;;;;0.89;73.11;100612.97;2196376;80;33129;-68
2021/01/15 09:29:44;;;;;;;55.65;31.73;;;;;;;0.83;73.29;100619.16;2181574;81;28861;-67
2021/01/15 09:32:47;;;;;;;55.70;32.67;;;;;;;0.75;73.35;100627.09;2179689;80;27651;-68
2021/01/15 09:35:51;;;;;;;50.00;29.92;;;;;;;0.73;73.56;100626.22;2184853;80;29856;-68
2021/01/15 09:38:57;;;;;;;53.80;30.95;;;;;;;0.73;73.75;100630.64;2200158;80;31071;-67
2021/01/15 09:41:59;;;;;;;55.12;31.65;;;;;;;0.70;73.41;100631.96;2180482;80;33988;-67
2021/01/15 09:45:02;;;;;;;52.78;29.57;;;;;;;0.66;73.36;100632.84;2184195;81;28853;-65
2021/01/15 09:48:09;;;;;;;59.70;33.53;;;;;;;0.62;73.59;100631.98;2184263;80;27617;-67
2021/01/15 09:51:11;;;;;;;72.05;40.08;;;;;;;0.66;73.54;100639.02;2157825;82;28836;-67
2021/01/15 09:54:14;;;;;;;63.80;35.30;;;;;;;0.68;73.82;100629.31;2120835;82;31125;-65
2021/01/15 09:57:16;;;;;;;59.98;34.78;;;;;;;0.72;73.88;100628.42;2166270;80;32271;-65
2021/01/15 10:00:20;;;;;;;65.75;37.78;;;;;;;0.72;73.48;100629.74;2161564;82;29749;-65
2021/01/15 10:03:22;;;;;;;65.15;38.90;;;;;;;0.67;73.36;100628.88;2173986;80;27674;-65
2021/01/15 10:06:27;;;;;;;69.05;41.02;;;;;;;0.67;73.38;100631.51;2199189;80;28858;-63
2021/01/15 10:09:30;;;;;;;76.85;46.20;;;;;;;0.68;73.74;100634.59;2198689;80;32068;-64
2021/01/15 10:12:32;;;;;;;69.55;41.60;;;;;;;0.73;73.83;100638.09;2183091;80;34559;-66
2021/01/15 10:15:35;;;;;;;70.05;40.08;;;;;;;0.77;73.90;100631.49;2139287;80;28860;-65
2021/01/15 10:18:39;;;;;;;57.35;33.88;;;;;;;0.80;73.81;100629.71;2160365;81;28146;-66
2021/01/15 10:21:41;;;;;;;62.50;34.80;;;;;;;0.81;73.68;100630.61;2167528;80;28889;-66
2021/01/15 10:24:43;;;;;;;65.32;36.10;;;;;;;0.83;73.64;100628.84;2177966;81;31143;-63
2021/01/15 10:27:46;;;;;;;71.12;39.67;;;;;;;0.84;73.64;100640.69;2164349;80;33293;-63
2021/01/15 10:30:48;;;;;;;72.50;39.95;;;;;;;0.88;73.61;100638.48;2169111;80;28666;-64
2021/01/15 10:33:50;;;;;;;66.97;38.75;;;;;;;0.87;73.63;100633.20;2183255;80;27792;-65
2021/01/15 10:36:53;;;;;;;63.75;36.85;;;;;;;0.89;73.44;100636.28;2176900;80;28820;-65
2021/01/15 10:39:55;;;;;;;62.78;36.42;;;;;;;0.90;73.50;100633.19;2178714;80;31139;-65
2021/01/15 10:42:57;;;;;;;72.75;40.00;;;;;;;0.88;73.45;100623.98;2173470;80;33418;-64
2021/01/15 10:45:59;;;;;;;76.37;39.63;;;;;;;0.92;73.63;100634.06;2182753;81;29785;-67
2021/01/15 10:49:10;;;;;;;65.60;35.60;;;;;;;0.95;73.68;100628.78;2183077;81;27742;-65
2021/01/15 10:52:12;;;;;;;65.85;35.40;;;;;;;0.94;73.26;100627.02;2183091;80;28875;-63
2021/01/15 10:55:14;;;;;;;63.35;36.08;;;;;;;0.89;73.22;100621.78;2177865;80;31193;-66
2021/01/15 10:58:17;;;;;;;63.30;34.50;;;;;;;0.91;73.39;100613.84;2182620;81;33070;-66
2021/01/15 11:01:19;;;;;;;58.10;31.73;;;;;;;0.92;73.40;100627.47;2194935;80;28943;-67
2021/01/15 11:04:21;;;;;;;61.85;34.03;;;;;;;0.93;73.28;100635.81;2174940;80;27687;-67
2021/01/15 11:07:24;;;;;;;77.05;33.38;;;;;;;0.91;73.29;100622.62;2184789;80;29257;-65
2021/01/15 11:10:26;;;;;;;49.88;27.73;;;;;;;0.95;73.17;100617.33;2183383;81;31135;-68
2021/01/15 11:13:29;;;;;;;80.35;37.05;;;;;;;0.97;73.06;100614.25;2199668;80;33996;-67
2021/01/15 11:16:31;;;;;;;64.53;32.50;;;;;;;1.01;73.08;100612.04;2183637;81;29826;-67
2021/01/15 11:19:33;;;;;;;102.55;43.95;;;;;;;1.06;73.12;100615.54;2183495;81;27735;-65
2021/01/15 11:22:36;;;;;;;59.93;30.55;;;;;;;1.13;73.13;100609.78;2182780;81;28828;-67
2021/01/15 11:25:43;;;;;;;67.47;37.45;;;;;;;1.13;72.79;100613.28;2182263;80;31346;-67
2021/01/15 11:28:45;;;;;;;72.35;34.27;;;;;;;1.13;72.61;100620.34;2183425;81;34104;-67
2021/01/15 11:31:48;;;;;;;61.70;30.08;;;;;;;1.08;72.34;100617.70;2179225;81;29809;-66
2021/01/15 11:34:51;;;;;;;44.35;28.87;;;;;;;1.08;72.42;100620.80;2174494;81;27722;-67
2021/01/15 11:38:02;;;;;;;48.58;27.62;;;;;;;1.06;72.40;100615.54;2190417;80;28805;-68
2021/01/15 11:41:15;;;;;;;61.95;35.40;;;;;;;1.09;72.68;100619.91;2186207;80;31068;-68
2021/01/15 11:44:17;;;;;;;68.10;36.83;;;;;;;1.18;72.81;100618.53;2179137;81;34210;-66
2021/01/15 11:47:19;;;;;;;58.35;31.27;;;;;;;1.22;72.71;100613.67;2197508;80;29788;-66
2021/01/15 11:50:25;;;;;;;75.05;38.85;;;;;;;1.25;72.71;100606.17;2179327;81;27727;-69
2021/01/15 11:53:32;;;;;;;70.12;39.10;;;;;;;1.28;72.50;100610.11;2208442;80;28816;-71
2021/01/15 11:56:35;;;;;;;68.78;39.58;;;;;;;1.29;72.55;100607.91;2192846;80;32107;-68
2021/01/15 11:59:38;;;;;;;120.40;62.23;;;;;;;1.32;72.71;100605.25;2206640;80;34051;-70
2021/01/15 12:02:40;;;;;;;102.85;57.13;;;;;;;1.34;72.37;100604.34;2171734;80;28917;-69
2021/01/15 12:05:52;;;;;;;83.80;47.25;;;;;;;1.39;72.41;100608.73;2168413;80;27750;-69
2021/01/15 12:08:54;;;;;;;109.70;64.22;;;;;;;1.44;72.43;100601.20;2175543;80;28882;-66
2021/01/15 12:12:00;;;;;;;101.35;58.17;;;;;;;1.49;72.25;100594.14;2183221;80;31144;-69
2021/01/15 12:15:01;;;;;;;84.37;48.92;;;;;;;1.54;72.41;100590.13;2205340;80;33124;-68
2021/01/15 12:18:03;;;;;;;75.92;45.63;;;;;;;1.59;72.26;100594.95;2206330;80;28872;-68
2021/01/15 12:21:06;;;;;;;75.40;42.75;;;;;;;1.60;72.14;100598.45;2170666;80;27734;-70
2021/01/15 12:24:09;;;;;;;88.72;46.15;;;;;;;1.61;72.22;100594.50;2201816;80;28979;-70
2021/01/15 12:27:12;;;;;;;86.70;41.58;;;;;;;1.56;71.97;100600.24;2178545;81;31134;-70
2021/01/15 12:30:16;;;;;;;87.62;44.50;;;;;;;1.53;71.89;100604.22;2187002;80;33309;-68
2021/01/15 12:33:19;;;;;;;56.80;32.53;;;;;;;1.51;71.78;100609.95;2108398;83;29289;-67
2021/01/15 12:36:22;;;;;;;66.25;39.85;;;;;;;1.51;71.88;100600.29;2213794;80;27820;-68
2021/01/15 12:39:24;;;;;;;63.15;34.70;;;;;;;1.54;72.03;100605.12;2195004;80;29750;-68
2021/01/15 12:42:26;;;;;;;54.80;30.35;;;;;;;1.58;72.08;100609.03;2212583;80;31119;-69
2021/01/15 12:45:29;;;;;;;70.62;35.70;;;;;;;1.59;71.91;100612.11;2218024;79;33042;-70
2021/01/15 12:48:31;;;;;;;67.72;34.35;;;;;;;1.60;71.87;100605.94;2192536;81;30016;-68
2021/01/15 12:51:36;;;;;;;86.80;48.70;;;;;;;1.62;71.92;100618.69;2192477;81;27813;-69
2021/01/15 12:54:38;;;;;;;72.60;38.45;;;;;;;1.63;71.89;100607.25;2192715;79;28902;-68
2021/01/15 12:57:40;;;;;;;63.33;36.25;;;;;;;1.63;71.70;100611.20;2205333;79;31141;-69
2021/01/15 13:00:42;;;;;;;64.05;37.73;;;;;;;1.60;71.73;100608.58;2191634;81;33233;-70
2021/01/15 13:03:44;;;;;;;44.77;27.35;;;;;;;1.58;71.67;100605.08;2202299;79;28868;-69
2021/01/15 13:06:46;;;;;;;43.63;25.08;;;;;;;1.56;71.56;100603.34;2224611;79;27931;-68
2021/01/15 13:09:48;;;;;;;46.65;23.70;;;;;;;1.57;71.67;100602.00;2218312;79;29009;-69
2021/01/15 13:12:51;;;;;;;45.12;26.15;;;;;;;1.56;71.44;100605.52;2191906;81;32446;-69
2021/01/15 13:15:53;;;;;;;54.08;31.27;;;;;;;1.55;71.50;100600.27;2192668;81;34036;-67
2021/01/15 13:18:57;;;;;;;59.10;33.18;;;;;;;1.57;71.67;100594.53;2192714;81;28833;-67
2021/01/15 13:22:00;;;;;;;60.58;33.20;;;;;;;1.59;71.82;100594.05;2230641;79;27731;-70
2021/01/15 13:25:02;;;;;;;53.48;31.12;;;;;;;1.63;71.88;100596.68;2232000;79;28814;-68
2021/01/15 13:28:07;;;;;;;47.43;28.32;;;;;;;1.64;71.76;100600.19;2231984;79;31589;-67
2021/01/15 13:31:10;;;;;;;56.58;33.73;;;;;;;1.67;71.70;100596.20;2222866;79;33126;-68
2021/01/15 13:34:12;;;;;;;56.95;34.58;;;;;;;1.69;71.97;100594.43;2208980;80;28803;-69
2021/01/15 13:37:14;;;;;;;57.75;32.88;;;;;;;1.72;71.92;100600.12;2211984;80;27501;-67
2021/01/15 13:40:17;;;;;;;65.10;38.78;;;;;;;1.71;71.84;100599.69;2215145;79;29743;-67
2021/01/15 13:43:19;;;;;;;62.55;35.68;;;;;;;1.73;71.89;100596.59;2197671;79;32019;-66
2021/01/15 13:46:22;;;;;;;54.50;33.00;;;;;;;1.73;71.84;100602.77;2173603;81;33014;-68
2021/01/15 13:49:24;;;;;;;53.10;29.25;;;;;;;1.72;71.71;100605.41;2173816;81;29239;-69
2021/01/15 13:52:27;;;;;;;52.38;31.70;;;;;;;1.70;71.61;100609.39;2181931;81;27660;-68
2021/01/15 13:55:29;;;;;;;54.38;30.37;;;;;;;1.67;71.63;100610.73;2183133;81;28811;-67
2021/01/15 13:58:32;;;;;;;69.15;36.45;;;;;;;1.65;71.70;100609.86;2182958;81;31196;-68
2021/01/15 14:01:39;;;;;;;169.85;63.45;;;;;;;1.64;71.77;100610.75;2180642;81;33218;-68
2021/01/15 14:04:50;;;;;;;172.85;64.97;;;;;;;1.62;71.77;100614.73;2182744;81;29124;-68
2021/01/15 14:07:55;;;;;;;155.85;65.60;;;;;;;1.64;71.83;100616.03;2183057;81;27637;-67
2021/01/15 14:10:58;;;;;;;83.22;40.80;;;;;;;1.62;71.85;100613.41;2183093;80;28812;-67
2021/01/15 14:14:00;;;;;;;57.03;35.58;;;;;;;1.60;71.85;100616.93;2172173;81;32251;-66